createdAt,value
2023-05-11T00:00:41.420Z,101211.19
2023-05-11T00:03:10.691Z,101209.06
2023-05-11T00:05:39.577Z,101207.78
2023-05-11T00:08:08.532Z,101214.44
2023-05-11T00:10:37.768Z,101213.16
2023-05-11T00:13:07.256Z,101199.75
2023-05-11T00:15:36.667Z,101207.63
2023-05-11T00:18:05.621Z,101202.44
2023-05-11T00:20:34.999Z,101197.63
2023-05-11T00:23:03.492Z,101196.91
2023-05-11T00:25:32.100Z,101196.69
2023-05-11T00:28:01.469Z,101198.34
2023-05-11T00:30:30.046Z,101201.53
2023-05-11T00:32:58.920Z,101203.72
2023-05-11T00:35:28.334Z,101200.84
2023-05-11T00:37:57.371Z,101206.19
2023-05-11T00:40:26.525Z,101198.16
2023-05-11T00:42:55.295Z,101201.53
2023-05-11T00:45:24.153Z,101200.09
2023-05-11T00:47:52.624Z,101193.31
2023-05-11T00:50:20.952Z,101193.31
2023-05-11T00:52:49.742Z,101194.03
2023-05-11T00:55:17.786Z,101197.97
2023-05-11T00:57:46.334Z,101194.03
2023-05-11T01:00:15.136Z,101197.97
2023-05-11T01:02:44.243Z,101200.66
2023-05-11T01:05:12.623Z,101203.34
2023-05-11T01:07:41.965Z,101202.59
2023-05-11T01:10:10.910Z,101200.66
2023-05-11T01:12:39.656Z,101201.88
2023-05-11T01:15:08.985Z,101207.25
2023-05-11T01:17:38.374Z,101207.25
2023-05-11T01:20:07.287Z,101200.47
2023-05-11T01:22:36.864Z,101208.50
2023-05-11T01:25:06.463Z,101201.88
2023-05-11T01:27:35.432Z,101206.50
2023-05-11T01:30:04.128Z,101205.81
2023-05-11T01:32:34.434Z,101201.50
2023-05-11T01:35:05.290Z,101209.75
2023-05-11T01:37:34.083Z,101211.16
2023-05-11T01:40:02.552Z,101208.50
2023-05-11T01:42:32.329Z,101216.53
2023-05-11T01:45:00.682Z,101213.13
2023-05-11T01:47:29.984Z,101209.75
2023-05-11T01:49:59.290Z,101215.09
2023-05-11T01:52:28.105Z,101215.09
2023-05-11T01:54:56.936Z,101215.09
2023-05-11T01:57:25.308Z,101220.44
2023-05-11T01:59:53.708Z,101215.09
2023-05-11T02:02:22.648Z,101216.53
2023-05-11T02:04:51.526Z,101217.78
2023-05-11T02:07:20.403Z,101214.38
2023-05-11T02:09:50.387Z,101213.66
2023-05-11T02:12:18.634Z,101212.22
2023-05-11T02:14:47.821Z,101222.94
2023-05-11T02:17:16.917Z,101220.44
2023-05-11T02:19:45.397Z,101219.03
2023-05-11T02:22:14.317Z,101222.94
2023-05-11T02:24:42.907Z,101218.28
2023-05-11T02:27:11.142Z,101222.41
2023-05-11T02:29:40.131Z,101222.19
2023-05-11T02:32:08.518Z,101217.56
2023-05-11T02:34:37.211Z,101221.50
2023-05-11T02:37:05.656Z,101215.44
2023-05-11T02:39:35.708Z,101220.06
2023-05-11T02:42:04.345Z,101220.06
2023-05-11T02:44:33.425Z,101224.19
2023-05-11T02:47:01.737Z,101212.03
2023-05-11T02:49:30.702Z,101218.66
2023-05-11T02:52:00.725Z,101226.69
2023-05-11T02:54:29.637Z,101225.44
2023-05-11T02:56:58.777Z,101218.66
2023-05-11T02:59:28.142Z,101222.03
2023-05-11T03:01:57.267Z,101218.66
2023-05-11T03:04:26.804Z,101224.00
2023-05-11T03:06:55.339Z,101222.53
2023-05-11T03:09:24.292Z,101215.72
2023-05-11T03:11:54.200Z,101210.38
2023-05-11T03:14:22.980Z,101213.06
2023-05-11T03:16:51.313Z,101210.38
2023-05-11T03:19:19.549Z,101211.84
2023-05-11T03:21:48.508Z,101214.34
2023-05-11T03:24:17.839Z,101215.72
2023-05-11T03:26:46.250Z,101214.34
2023-05-11T03:29:15.329Z,101214.34
2023-05-11T03:31:43.839Z,101221.81
2023-05-11T03:34:13.185Z,101214.34
2023-05-11T03:36:43.877Z,101214.34
2023-05-11T03:39:13.012Z,101207.53
2023-05-11T03:41:41.957Z,101207.53
2023-05-11T03:44:11.356Z,101212.88
2023-05-11T03:46:41.115Z,101212.88
2023-05-11T03:49:13.569Z,101204.16
2023-05-11T03:51:43.433Z,101206.09
2023-05-11T03:54:12.428Z,101206.09
2023-05-11T03:56:40.066Z,101200.75
2023-05-11T03:59:08.439Z,101198.06
2023-05-11T04:01:37.348Z,101196.81
2023-05-11T04:04:05.832Z,101200.75
2023-05-11T04:06:35.265Z,101207.53
2023-05-11T04:09:11.283Z,101204.66
2023-05-11T04:11:40.791Z,101210.72
2023-05-11T04:14:09.754Z,101202.00
2023-05-11T04:16:38.686Z,101216.06
2023-05-11T04:19:07.735Z,101222.16
2023-05-11T04:21:36.130Z,101223.59
2023-05-11T04:24:04.992Z,101212.88
2023-05-11T04:26:33.330Z,101227.72
2023-05-11T04:29:02.576Z,101220.41
2023-05-11T04:31:31.083Z,101226.44
2023-05-11T04:34:00.846Z,101231.81
2023-05-11T04:36:29.377Z,101238.63
2023-05-11T04:38:58.258Z,101233.25
2023-05-11T04:41:26.864Z,101234.72
2023-05-11T04:43:58.592Z,101235.94
2023-05-11T04:46:28.289Z,101238.63
2023-05-11T04:48:57.630Z,101244.69
2023-05-11T04:51:26.859Z,101245.44
2023-05-11T04:53:56.200Z,101246.84
2023-05-11T04:56:24.720Z,101242.22
2023-05-11T04:58:54.083Z,101245.59
2023-05-11T05:01:22.702Z,101251.66
2023-05-11T05:03:51.632Z,101248.28
2023-05-11T05:06:20.544Z,101245.81
2023-05-11T05:08:49.337Z,101249.19
2023-05-11T05:11:17.873Z,101248.66
2023-05-11T05:13:46.454Z,101246.88
2023-05-11T05:16:15.584Z,101253.34
2023-05-11T05:18:45.098Z,101244.06
2023-05-11T05:21:13.948Z,101244.47
2023-05-11T05:23:42.337Z,101251.63
2023-05-11T05:26:12.430Z,101245.22
2023-05-11T05:28:42.009Z,101253.63
2023-05-11T05:31:11.440Z,101255.25
2023-05-11T05:33:40.601Z,101262.22
2023-05-11T05:36:09.656Z,101258.50
2023-05-11T05:38:38.526Z,101262.78
2023-05-11T05:41:07.548Z,101267.13
2023-05-11T05:43:39.903Z,101263.16
2023-05-11T05:46:08.625Z,101264.63
2023-05-11T05:48:37.497Z,101266.56
2023-05-11T05:51:06.465Z,101275.34
2023-05-11T05:53:36.570Z,101280.69
2023-05-11T05:56:06.106Z,101272.47
2023-05-11T05:58:35.010Z,101281.75
2023-05-11T06:01:03.916Z,101283.19
2023-05-11T06:03:32.608Z,101277.84
2023-05-11T06:06:01.570Z,101287.50
2023-05-11T06:08:30.270Z,101286.63
2023-05-11T06:10:59.639Z,101289.66
2023-05-11T06:13:28.703Z,101285.75
2023-05-11T06:15:59.451Z,101283.25
2023-05-11T06:18:33.660Z,101295.97
2023-05-11T06:21:03.999Z,101288.63
2023-05-11T06:23:33.864Z,101293.97
2023-05-11T06:26:02.950Z,101284.69
2023-05-11T06:28:33.578Z,101293.66
2023-05-11T06:31:06.320Z,101293.31
2023-05-11T06:33:38.338Z,101295.81
2023-05-11T06:36:14.013Z,101298.88
2023-05-11T06:38:42.223Z,101305.13
2023-05-11T06:41:10.066Z,101302.66
2023-05-11T06:43:38.668Z,101300.88
2023-05-11T06:46:18.948Z,101306.97
2023-05-11T06:48:47.795Z,101302.81
2023-05-11T06:51:17.150Z,101305.50
2023-05-11T06:53:45.660Z,101303.03
2023-05-11T06:56:14.609Z,101310.03
2023-05-11T06:58:43.493Z,101313.06
2023-05-11T07:01:12.784Z,101311.63
2023-05-11T07:03:42.198Z,101311.63
2023-05-11T07:06:11.573Z,101312.88
2023-05-11T07:08:40.779Z,101310.19
2023-05-11T07:11:09.482Z,101314.09
2023-05-11T07:13:38.687Z,101311.25
2023-05-11T07:16:08.017Z,101310.19
2023-05-11T07:18:36.933Z,101311.09
2023-05-11T07:21:06.355Z,101305.56
2023-05-11T07:23:35.462Z,101309.53
2023-05-11T07:26:04.301Z,101309.53
2023-05-11T07:28:32.921Z,101307.41
2023-05-11T07:31:01.645Z,101312.59
2023-05-11T07:33:31.018Z,101314.97
2023-05-11T07:36:00.287Z,101315.13
2023-05-11T07:38:29.782Z,101319.25
2023-05-11T07:41:03.498Z,101319.41
2023-05-11T07:43:33.876Z,101321.03
2023-05-11T07:46:03.487Z,101318.34
2023-05-11T07:48:32.690Z,101319.94
2023-05-11T07:51:01.425Z,101321.41
2023-05-11T07:53:30.831Z,101322.81
2023-05-11T07:56:00.213Z,101321.75
2023-05-11T07:58:29.589Z,101329.28
2023-05-11T08:00:58.863Z,101322.31
2023-05-11T08:03:28.327Z,101316.06
2023-05-11T08:05:57.378Z,101326.06
2023-05-11T08:08:26.864Z,101324.44
2023-05-11T08:10:55.921Z,101329.66
2023-05-11T08:13:25.969Z,101325.50
2023-05-11T08:15:55.621Z,101334.63
2023-05-11T08:18:24.542Z,101329.22
2023-05-11T08:20:53.352Z,101335.66
2023-05-11T08:23:22.836Z,101336.13
2023-05-11T08:25:52.282Z,101341.84
2023-05-11T08:28:21.630Z,101341.66
2023-05-11T08:30:50.848Z,101341.59
2023-05-11T08:33:35.778Z,101334.06
2023-05-11T08:36:06.345Z,101333.28
2023-05-11T08:38:34.709Z,101334.34
2023-05-11T08:41:02.935Z,101338.19
2023-05-11T08:43:32.345Z,101326.97
2023-05-11T08:46:01.729Z,101342.38
2023-05-11T08:48:30.948Z,101326.38
2023-05-11T08:51:00.279Z,101335.16
2023-05-11T08:53:29.616Z,101326.22
2023-05-11T08:55:58.174Z,101334.44
2023-05-11T08:58:26.484Z,101326.53
2023-05-11T09:00:55.734Z,101329.25
2023-05-11T09:03:25.774Z,101330.13
2023-05-11T09:05:54.848Z,101326.31
2023-05-11T09:08:24.170Z,101331.19
2023-05-11T09:10:53.404Z,101327.19
2023-05-11T09:13:22.663Z,101328.63
2023-05-11T09:15:51.543Z,101321.44
2023-05-11T09:18:20.808Z,101318.84
2023-05-11T09:20:50.007Z,101324.41
2023-05-11T09:23:18.725Z,101322.75
2023-05-11T09:25:47.868Z,101325.84
2023-05-11T09:28:16.836Z,101325.06
2023-05-11T09:30:46.238Z,101334.34
2023-05-11T09:33:14.828Z,101335.53
2023-05-11T09:35:44.713Z,101328.03
2023-05-11T09:38:14.277Z,101330.78
2023-05-11T09:40:44.262Z,101334.13
2023-05-11T09:43:13.786Z,101328.31
2023-05-11T09:45:43.587Z,101325.53
2023-05-11T09:48:12.982Z,101335.13
2023-05-11T09:50:42.799Z,101331.66
2023-05-11T09:53:14.058Z,101332.13
2023-05-11T09:55:44.232Z,101328.81
2023-05-11T09:58:13.614Z,101332.59
2023-05-11T10:00:42.524Z,101330.81
2023-05-11T10:03:11.631Z,101328.50
2023-05-11T10:05:40.267Z,101327.56
2023-05-11T10:08:09.542Z,101328.03
2023-05-11T10:10:38.781Z,101321.16
2023-05-11T10:13:07.565Z,101322.13
2023-05-11T10:15:36.622Z,101320.38
2023-05-11T10:18:05.320Z,101316.50
2023-05-11T10:20:34.641Z,101323.78
2023-05-11T10:23:03.427Z,101322.84
2023-05-11T10:25:32.569Z,101327.28
2023-05-11T10:28:01.604Z,101319.50
2023-05-11T10:30:30.051Z,101325.31
2023-05-11T10:32:58.337Z,101325.78
2023-05-11T10:35:27.280Z,101323.38
2023-05-11T10:37:56.512Z,101330.44
2023-05-11T10:40:25.930Z,101330.69
2023-05-11T10:42:55.254Z,101333.66
2023-05-11T10:45:24.713Z,101331.19
2023-05-11T10:47:54.142Z,101330.19
2023-05-11T10:50:22.943Z,101328.59
2023-05-11T10:52:52.208Z,101324.53
2023-05-11T10:55:21.533Z,101324.38
2023-05-11T10:57:50.342Z,101327.06
2023-05-11T11:00:19.408Z,101324.41
2023-05-11T11:02:48.374Z,101329.78
2023-05-11T11:05:18.218Z,101327.84
2023-05-11T11:07:47.202Z,101337.19
2023-05-11T11:10:16.000Z,101335.72
2023-05-11T11:12:45.310Z,101331.09
2023-05-11T11:15:14.810Z,101336.47
2023-05-11T11:17:44.153Z,101324.66
2023-05-11T11:20:13.020Z,101339.69
2023-05-11T11:22:41.807Z,101340.41
2023-05-11T11:25:10.643Z,101339.31
2023-05-11T11:27:39.776Z,101336.44
2023-05-11T11:30:08.377Z,101330.72
2023-05-11T11:32:37.224Z,101345.06
2023-05-11T11:35:06.326Z,101338.97
2023-05-11T11:37:35.056Z,101337.50
2023-05-11T11:40:14.146Z,101342.88
2023-05-11T11:42:44.385Z,101339.50
2023-05-11T11:45:14.173Z,101338.03
2023-05-11T11:47:43.417Z,101336.09
2023-05-11T11:50:12.200Z,101338.97
2023-05-11T11:52:41.536Z,101341.09
2023-05-11T11:55:10.851Z,101337.00
2023-05-11T11:57:40.220Z,101334.31
2023-05-11T12:00:09.297Z,101334.31
2023-05-11T12:02:40.309Z,101347.19
2023-05-11T12:05:09.229Z,101346.47
2023-05-11T12:07:38.115Z,101348.41
2023-05-11T12:10:07.126Z,101347.91
2023-05-11T12:12:36.479Z,101346.81
2023-05-11T12:15:05.344Z,101349.50
2023-05-11T12:17:34.154Z,101347.91
2023-05-11T12:20:03.602Z,101347.56
2023-05-11T12:22:32.837Z,101345.75
2023-05-11T12:25:01.743Z,101351.88
2023-05-11T12:27:30.972Z,101349.00
2023-05-11T12:30:00.341Z,101358.66
2023-05-11T12:32:29.018Z,101353.28
2023-05-11T12:34:57.874Z,101349.34
2023-05-11T12:37:27.138Z,101342.22
2023-05-11T12:39:56.321Z,101349.72
2023-05-11T12:42:25.031Z,101352.59
2023-05-11T12:44:54.209Z,101346.13
2023-05-11T12:47:23.412Z,101345.78
2023-05-11T12:49:52.661Z,101346.50
2023-05-11T12:52:21.955Z,101343.63
2023-05-11T12:54:50.831Z,101338.41
2023-05-11T12:57:19.706Z,101342.91
2023-05-11T12:59:48.583Z,101343.59
2023-05-11T13:02:17.145Z,101351.13
2023-05-11T13:04:45.284Z,101345.56
2023-05-11T13:07:13.879Z,101337.47
2023-05-11T13:09:42.106Z,101331.38
2023-05-11T13:12:10.232Z,101334.59
2023-05-11T13:14:38.740Z,101335.09
2023-05-11T13:17:07.502Z,101335.22
2023-05-11T13:19:36.649Z,101333.78
2023-05-11T13:22:05.692Z,101329.09
2023-05-11T13:24:34.737Z,101325.81
2023-05-11T13:27:04.212Z,101330.44
2023-05-11T13:29:32.770Z,101329.69
2023-05-11T13:32:00.873Z,101323.38
2023-05-11T13:34:30.168Z,101319.59
2023-05-11T13:36:59.388Z,101326.41
2023-05-11T13:39:28.675Z,101315.66
2023-05-11T13:41:57.473Z,101318.00
2023-05-11T13:44:26.276Z,101320.91
2023-05-11T13:46:54.668Z,101319.81
2023-05-11T13:49:23.736Z,101310.03
2023-05-11T13:51:53.236Z,101315.06
2023-05-11T13:54:22.225Z,101309.53
2023-05-11T13:56:51.741Z,101309.53
2023-05-11T13:59:21.114Z,101313.28
2023-05-11T14:01:50.025Z,101314.56
2023-05-11T14:04:19.600Z,101307.38
2023-05-11T14:06:49.027Z,101308.25
2023-05-11T14:09:18.396Z,101311.09
2023-05-11T14:11:47.592Z,101312.72
2023-05-11T14:14:16.928Z,101308.91
2023-05-11T14:16:45.841Z,101306.75
2023-05-11T14:19:15.268Z,101308.50
2023-05-11T14:21:44.306Z,101314.53
2023-05-11T14:24:13.745Z,101304.44
2023-05-11T14:26:42.896Z,101310.66
2023-05-11T14:29:11.270Z,101304.66
2023-05-11T14:31:39.918Z,101308.34
2023-05-11T14:34:09.239Z,101303.75
2023-05-11T14:36:38.452Z,101301.91
2023-05-11T14:39:07.216Z,101306.66
2023-05-11T14:41:36.207Z,101305.72
2023-05-11T14:44:04.904Z,101303.19
2023-05-11T14:46:33.780Z,101305.72
2023-05-11T14:49:03.013Z,101305.56
2023-05-11T14:51:32.218Z,101319.09
2023-05-11T14:54:01.438Z,101316.63
2023-05-11T14:56:30.250Z,101321.38
2023-05-11T14:58:59.139Z,101307.41
2023-05-11T15:01:28.426Z,101315.00
2023-05-11T15:03:57.060Z,101318.63
2023-05-11T15:06:25.213Z,101306.50
2023-05-11T15:08:54.362Z,101317.47
2023-05-11T15:11:23.600Z,101321.63
2023-05-11T15:13:52.626Z,101319.16
2023-05-11T15:16:20.881Z,101314.19
2023-05-11T15:18:50.297Z,101320.25
2023-05-11T15:21:19.397Z,101327.81
2023-05-11T15:23:48.123Z,101324.56
2023-05-11T15:26:17.529Z,101322.03
2023-05-11T15:28:46.877Z,101322.19
2023-05-11T15:31:15.462Z,101326.31
2023-05-11T15:33:44.424Z,101326.13
2023-05-11T15:36:13.882Z,101324.56
2023-05-11T15:38:42.960Z,101322.78
2023-05-11T15:41:11.811Z,101337.19
2023-05-11T15:43:41.125Z,101332.72
2023-05-11T15:46:10.180Z,101334.56
2023-05-11T15:48:39.145Z,101328.34
2023-05-11T15:51:07.985Z,101331.63
2023-05-11T15:53:37.375Z,101332.38
2023-05-11T15:56:06.692Z,101336.34
2023-05-11T15:58:36.107Z,101343.16
2023-05-11T16:01:05.458Z,101341.19
2023-05-11T16:03:34.913Z,101348.59
2023-05-11T16:06:04.097Z,101354.34
2023-05-11T16:08:32.962Z,101363.34
2023-05-11T16:11:01.937Z,101367.09
2023-05-11T16:13:31.224Z,101377.13
2023-05-11T16:16:00.417Z,101376.22
2023-05-11T16:18:29.664Z,101372.78
2023-05-11T16:20:58.972Z,101368.34
2023-05-11T16:23:28.238Z,101362.25
2023-05-11T16:25:57.558Z,101374.41
2023-05-11T16:28:26.558Z,101366.53
2023-05-11T16:30:56.485Z,101365.44
2023-05-11T16:33:26.570Z,101355.75
2023-05-11T16:35:56.112Z,101353.63
2023-05-11T16:38:24.904Z,101349.31
2023-05-11T16:40:54.259Z,101349.31
2023-05-11T16:43:23.683Z,101349.84
2023-05-11T16:45:52.652Z,101345.03
2023-05-11T16:48:21.499Z,101345.03
2023-05-11T16:50:56.155Z,101347.88
2023-05-11T16:53:25.182Z,101349.31
2023-05-11T16:55:53.434Z,101336.06
2023-05-11T16:58:22.850Z,101348.25
2023-05-11T17:00:52.334Z,101338.94
2023-05-11T17:03:21.242Z,101341.78
2023-05-11T17:05:50.120Z,101351.13
2023-05-11T17:08:19.147Z,101343.25
2023-05-11T17:10:47.296Z,101350.03
2023-05-11T17:13:16.665Z,101353.25
2023-05-11T17:15:46.011Z,101365.44
2023-05-11T17:18:14.784Z,101363.81
2023-05-11T17:20:43.872Z,101357.72
2023-05-11T17:23:12.196Z,101364.34
2023-05-11T17:25:43.934Z,101352.72
2023-05-11T17:28:13.503Z,101363.97
2023-05-11T17:33:16.489Z,101359.66
2023-05-11T17:35:45.992Z,101363.59
2023-05-11T17:38:14.651Z,101361.47
2023-05-11T17:40:44.069Z,101364.00
2023-05-11T17:43:13.081Z,101360.38
2023-05-11T17:45:41.889Z,101366.28
2023-05-11T17:48:10.769Z,101365.38
2023-05-11T17:50:39.514Z,101363.75
2023-05-11T17:53:08.218Z,101366.25
2023-05-11T17:55:37.447Z,101366.06
2023-05-11T17:58:06.751Z,101364.66
2023-05-11T18:00:35.560Z,101360.31
2023-05-11T18:03:04.980Z,101357.63
2023-05-11T18:05:47.654Z,101368.19
2023-05-11T18:08:18.227Z,101359.97
2023-05-11T18:10:47.337Z,101362.66
2023-05-11T18:13:17.637Z,101363.88
2023-05-11T18:15:47.076Z,101359.59
2023-05-11T18:18:16.231Z,101356.19
2023-05-11T18:20:45.073Z,101358.16
2023-05-11T18:23:14.305Z,101361.34
2023-05-11T18:25:43.117Z,101360.66
2023-05-11T18:28:11.869Z,101364.59
2023-05-11T18:30:40.375Z,101363.84
2023-05-11T18:33:09.119Z,101372.44
2023-05-11T18:35:38.373Z,101372.25
2023-05-11T18:38:07.601Z,101370.63
2023-05-11T18:40:36.921Z,101369.19
2023-05-11T18:43:05.667Z,101371.72
2023-05-11T18:45:35.177Z,101375.44
2023-05-11T18:48:04.142Z,101377.91
2023-05-11T18:50:32.977Z,101377.75
2023-05-11T18:53:02.093Z,101380.94
2023-05-11T18:55:35.311Z,101394.72
2023-05-11T18:58:07.821Z,101393.25
2023-05-11T19:00:37.179Z,101393.81
2023-05-11T19:03:06.244Z,101395.56
2023-05-11T19:05:35.648Z,101393.41
2023-05-11T19:08:04.613Z,101401.97
2023-05-11T19:10:32.931Z,101403.25
2023-05-11T19:13:01.801Z,101395.53
2023-05-11T19:15:31.049Z,101408.22
2023-05-11T19:18:00.037Z,101399.97
2023-05-11T19:20:28.754Z,101410.50
2023-05-11T19:22:57.583Z,101411.72
2023-05-11T19:25:26.853Z,101412.97
2023-05-11T19:27:59.870Z,101415.50
2023-05-11T19:30:29.080Z,101424.75
2023-05-11T19:32:58.470Z,101419.22
2023-05-11T19:35:27.448Z,101425.81
2023-05-11T19:37:55.255Z,101432.97
2023-05-11T19:40:43.822Z,101432.22
2023-05-11T19:43:12.305Z,101439.53
2023-05-11T19:45:41.168Z,101450.78
2023-05-11T19:48:10.451Z,101445.41
2023-05-11T19:50:39.005Z,101439.34
2023-05-11T19:53:07.695Z,101446.50
2023-05-11T19:55:36.521Z,101438.44
2023-05-11T19:58:05.060Z,101446.50
2023-05-11T20:00:33.664Z,101451.84
2023-05-11T20:03:03.257Z,101465.06
2023-05-11T20:05:32.673Z,101458.25
2023-05-11T20:08:01.669Z,101463.59
2023-05-11T20:10:30.282Z,101462.19
2023-05-11T20:12:59.594Z,101459.31
2023-05-11T20:15:28.913Z,101457.84
2023-05-11T20:17:58.368Z,101468.59
2023-05-11T20:20:27.719Z,101461.09
2023-05-11T20:22:56.962Z,101455.00
2023-05-11T20:25:26.228Z,101458.19
2023-05-11T20:27:55.484Z,101467.47
2023-05-11T20:30:24.882Z,101466.06
2023-05-11T20:35:42.611Z,101468.00
2023-05-11T20:38:11.904Z,101463.88
2023-05-11T20:40:41.186Z,101463.88
2023-05-11T20:43:13.770Z,101462.44
2023-05-11T20:45:45.165Z,101467.78
2023-05-11T20:48:14.428Z,101462.44
2023-05-11T20:50:43.759Z,101460.31
2023-05-11T20:53:13.154Z,101462.25
2023-05-11T20:55:41.989Z,101464.94
2023-05-11T20:58:11.370Z,101460.78
2023-05-11T21:00:40.883Z,101463.47
2023-05-11T21:03:09.867Z,101460.78
2023-05-11T21:05:39.417Z,101459.56
2023-05-11T21:08:08.772Z,101457.41
2023-05-11T21:10:38.103Z,101449.88
2023-05-11T21:13:07.412Z,101457.94
2023-05-11T21:15:36.813Z,101463.81
2023-05-11T21:18:05.870Z,101459.19
2023-05-11T21:20:35.185Z,101463.28
2023-05-11T21:23:04.103Z,101456.28
2023-05-11T21:25:33.378Z,101452.19
2023-05-11T21:28:02.666Z,101461.66
2023-05-11T21:30:32.022Z,101464.31
2023-05-11T21:33:01.408Z,101462.88
2023-05-11T21:35:30.092Z,101458.78
2023-05-11T21:37:58.416Z,101468.03
2023-05-11T21:40:27.018Z,101469.50
2023-05-11T21:42:56.223Z,101456.59
2023-05-11T21:45:25.493Z,101455.91
2023-05-11T21:47:53.987Z,101454.47
2023-05-11T21:50:22.519Z,101459.81
2023-05-11T21:52:51.799Z,101459.81
2023-05-11T21:55:21.132Z,101463.75
2023-05-11T21:57:50.843Z,101456.94
2023-05-11T22:00:20.564Z,101460.88
2023-05-11T22:02:50.307Z,101459.59
2023-05-11T22:05:19.646Z,101463.56
2023-05-11T22:07:48.801Z,101464.78
2023-05-11T22:10:17.836Z,101458.69
2023-05-11T22:12:47.263Z,101455.81
2023-05-11T22:15:16.512Z,101458.00
2023-05-11T22:17:45.822Z,101461.88
2023-05-11T22:20:14.752Z,101467.25
2023-05-11T22:22:44.202Z,101466.53
2023-05-11T22:25:13.231Z,101460.47
2023-05-11T22:27:41.553Z,101463.66
2023-05-11T22:30:10.113Z,101459.03
2023-05-11T22:32:39.399Z,101456.88
2023-05-11T22:35:09.794Z,101456.16
2023-05-11T22:37:39.257Z,101456.16
2023-05-11T22:40:08.576Z,101462.94
2023-05-11T22:42:37.846Z,101452.75
2023-05-11T22:45:07.049Z,101456.16
2023-05-11T22:47:36.166Z,101456.16
2023-05-11T22:50:04.936Z,101458.63
2023-05-11T22:52:33.867Z,101464.00
2023-05-11T22:55:03.360Z,101457.91
2023-05-11T22:57:32.696Z,101463.25
2023-05-11T23:00:01.597Z,101457.19
2023-05-11T23:02:31.073Z,101456.50
2023-05-11T23:04:59.876Z,101462.56
2023-05-11T23:07:29.139Z,101455.75
2023-05-11T23:09:58.407Z,101455.03
2023-05-11T23:12:27.758Z,101457.00
2023-05-11T23:14:56.987Z,101458.22
2023-05-11T23:17:25.903Z,101459.69
2023-05-11T23:19:54.786Z,101447.50
2023-05-11T23:22:24.011Z,101456.78
2023-05-11T23:24:53.358Z,101455.38
2023-05-11T23:27:22.670Z,101452.69
2023-05-11T23:29:51.533Z,101459.25
2023-05-11T23:32:20.405Z,101453.91
2023-05-11T23:34:48.870Z,101451.22
2023-05-11T23:37:18.348Z,101452.47
2023-05-11T23:39:49.359Z,101455.16
2023-05-11T23:42:17.058Z,101441.03
2023-05-11T23:44:44.819Z,101446.38
2023-05-11T23:47:14.549Z,101438.91
2023-05-11T23:49:44.083Z,101448.16
2023-05-11T23:52:14.272Z,101445.28
2023-05-11T23:54:43.484Z,101438.50
2023-05-11T23:57:11.867Z,101443.13
2023-05-11T23:59:41.830Z,101437.03
